createdAt,value
2023-04-09T00:00:29.230Z,6.79
2023-04-09T00:01:30.881Z,6.80
2023-04-09T00:02:32.519Z,6.83
2023-04-09T00:03:35.025Z,6.85
2023-04-09T00:04:36.749Z,6.88
2023-04-09T00:05:39.768Z,6.94
2023-04-09T00:06:41.294Z,6.95
2023-04-09T00:07:44.478Z,6.82
2023-04-09T00:08:46.255Z,6.65
2023-04-09T00:09:47.750Z,6.65
2023-04-09T00:10:53.117Z,6.71
2023-04-09T00:11:54.741Z,6.73
2023-04-09T00:12:56.284Z,6.80
2023-04-09T00:13:58.502Z,6.81
2023-04-09T00:15:00.024Z,6.78
2023-04-09T00:16:01.600Z,6.80
2023-04-09T00:17:03.155Z,6.76
2023-04-09T00:18:04.734Z,6.74
2023-04-09T00:19:06.389Z,6.74
2023-04-09T00:20:08.554Z,6.69
2023-04-09T00:21:10.092Z,6.64
2023-04-09T00:22:11.664Z,6.59
2023-04-09T00:23:13.189Z,6.60
2023-04-09T00:24:14.778Z,6.56
2023-04-09T00:25:16.308Z,6.53
2023-04-09T00:26:17.805Z,6.49
2023-04-09T00:27:19.916Z,6.47
2023-04-09T00:28:21.475Z,6.43
2023-04-09T00:29:23.041Z,6.40
2023-04-09T00:30:24.746Z,6.37
2023-04-09T00:31:26.525Z,6.39
2023-04-09T00:32:28.071Z,6.43
2023-04-09T00:33:29.893Z,6.45
2023-04-09T00:34:31.465Z,6.43
2023-04-09T00:35:33.034Z,6.41
2023-04-09T00:36:34.603Z,6.37
2023-04-09T00:37:36.229Z,6.30
2023-04-09T00:38:37.813Z,6.28
2023-04-09T00:39:39.334Z,6.29
2023-04-09T00:40:40.929Z,6.29
2023-04-09T00:41:42.450Z,6.26
2023-04-09T00:42:44.939Z,6.26
2023-04-09T00:43:46.473Z,6.23
2023-04-09T00:44:48.135Z,6.21
2023-04-09T00:45:49.758Z,6.23
2023-04-09T00:46:52.726Z,6.22
2023-04-09T00:47:54.505Z,6.19
2023-04-09T00:48:56.128Z,6.22
2023-04-09T00:49:58.135Z,6.24
2023-04-09T00:50:59.921Z,6.22
2023-04-09T00:52:01.753Z,6.17
2023-04-09T00:53:04.682Z,6.24
2023-04-09T00:54:07.110Z,6.25
2023-04-09T00:55:10.072Z,6.27
2023-04-09T00:56:13.410Z,6.33
2023-04-09T00:57:15.686Z,6.32
2023-04-09T00:58:17.325Z,6.26
2023-04-09T00:59:19.337Z,6.31
2023-04-09T01:00:20.901Z,6.31
2023-04-09T01:01:22.598Z,6.38
2023-04-09T01:02:24.265Z,6.41
2023-04-09T01:03:26.239Z,6.47
2023-04-09T01:04:27.903Z,6.51
2023-04-09T01:06:09.924Z,6.53
2023-04-09T01:07:41.992Z,6.56
2023-04-09T01:08:46.205Z,6.54
2023-04-09T01:10:09.614Z,6.54
2023-04-09T01:11:39.752Z,6.51
2023-04-09T01:12:50.352Z,6.53
2023-04-09T01:13:57.620Z,6.51
2023-04-09T01:15:13.947Z,6.53
2023-04-09T01:16:18.498Z,6.54
2023-04-09T01:17:33.824Z,6.50
2023-04-09T01:18:37.886Z,6.52
2023-04-09T01:19:48.552Z,6.57
2023-04-09T01:21:04.937Z,6.59
2023-04-09T01:22:18.333Z,6.60
2023-04-09T01:23:34.759Z,6.66
2023-04-09T01:24:49.288Z,6.59
2023-04-09T01:26:16.754Z,6.59
2023-04-09T01:27:23.538Z,6.50
2023-04-09T01:28:39.121Z,6.38
2023-04-09T01:29:51.342Z,6.33
2023-04-09T01:30:59.458Z,6.32
2023-04-09T01:32:03.076Z,6.36
2023-04-09T01:33:05.941Z,6.45
2023-04-09T01:34:09.083Z,6.51
2023-04-09T01:35:10.674Z,6.56
2023-04-09T01:36:14.229Z,6.63
2023-04-09T01:37:16.998Z,6.63
2023-04-09T01:38:20.646Z,6.68
2023-04-09T01:39:22.757Z,6.70
2023-04-09T01:40:24.786Z,6.72
2023-04-09T01:41:27.113Z,6.76
2023-04-09T01:42:29.692Z,6.80
2023-04-09T01:43:33.396Z,6.83
2023-04-09T01:44:39.286Z,6.84
2023-04-09T01:45:44.178Z,6.89
2023-04-09T01:46:47.574Z,6.84
2023-04-09T01:47:49.586Z,6.87
2023-04-09T01:48:52.159Z,6.85
2023-04-09T01:49:54.187Z,6.85
2023-04-09T01:50:57.579Z,6.84
2023-04-09T01:51:59.859Z,6.81
2023-04-09T01:53:02.270Z,6.79
2023-04-09T01:54:04.494Z,6.81
2023-04-09T01:55:06.705Z,6.85
2023-04-09T01:56:09.521Z,6.87
2023-04-09T01:57:11.399Z,6.90
2023-04-09T01:58:13.628Z,6.94
2023-04-09T01:59:15.562Z,6.93
2023-04-09T02:00:17.160Z,6.90
2023-04-09T02:01:26.421Z,6.91
2023-04-09T02:02:36.975Z,6.92
2023-04-09T02:03:48.993Z,6.92
2023-04-09T02:04:53.610Z,6.92
2023-04-09T02:06:21.192Z,6.94
2023-04-09T02:07:28.709Z,6.91
2023-04-09T02:08:31.285Z,6.82
2023-04-09T02:09:36.986Z,6.75
2023-04-09T02:10:40.483Z,6.72
2023-04-09T02:11:43.524Z,6.63
2023-04-09T02:12:50.871Z,6.58
2023-04-09T02:13:55.485Z,6.56
2023-04-09T02:14:58.752Z,6.53
2023-04-09T02:16:01.494Z,6.51
2023-04-09T02:17:03.324Z,6.45
2023-04-09T02:18:05.033Z,6.43
2023-04-09T02:19:06.583Z,6.44
2023-04-09T02:20:08.707Z,6.43
2023-04-09T02:21:10.415Z,6.44
2023-04-09T02:22:13.248Z,6.45
2023-04-09T02:23:16.352Z,6.43
2023-04-09T02:24:17.894Z,6.41
2023-04-09T02:25:19.483Z,6.38
2023-04-09T02:26:21.564Z,6.33
2023-04-09T02:27:23.132Z,6.27
2023-04-09T02:28:24.856Z,6.19
2023-04-09T02:29:26.551Z,6.21
2023-04-09T02:30:28.109Z,6.17
2023-04-09T02:31:30.410Z,6.13
2023-04-09T02:32:32.130Z,6.11
2023-04-09T02:33:33.716Z,6.11
2023-04-09T02:34:35.297Z,6.11
2023-04-09T02:35:36.993Z,6.10
2023-04-09T02:36:38.660Z,6.08
2023-04-09T02:37:40.176Z,6.14
2023-04-09T02:38:42.449Z,6.19
2023-04-09T02:39:44.014Z,6.26
2023-04-09T02:40:45.614Z,6.21
2023-04-09T02:41:47.141Z,6.16
2023-04-09T02:42:48.658Z,6.14
2023-04-09T02:43:50.196Z,6.08
2023-04-09T02:44:51.780Z,6.02
2023-04-09T02:45:53.295Z,6.00
2023-04-09T02:46:55.670Z,5.96
2023-04-09T02:47:57.217Z,5.96
2023-04-09T02:48:58.887Z,5.91
2023-04-09T02:50:00.403Z,5.89
2023-04-09T02:51:05.934Z,5.90
2023-04-09T02:52:10.231Z,5.91
2023-04-09T02:53:11.805Z,5.84
2023-04-09T02:54:13.347Z,5.88
2023-04-09T02:55:15.314Z,5.86
2023-04-09T02:56:16.943Z,5.88
2023-04-09T02:57:18.536Z,5.87
2023-04-09T02:58:20.050Z,5.91
2023-04-09T02:59:21.588Z,5.95
2023-04-09T03:00:23.235Z,6.00
2023-04-09T03:01:24.934Z,6.03
2023-04-09T03:02:26.794Z,6.10
2023-04-09T03:03:28.602Z,6.16
2023-04-09T03:04:30.162Z,6.22
2023-04-09T03:05:31.689Z,6.25
2023-04-09T03:06:33.337Z,6.27
2023-04-09T03:07:34.907Z,6.26
2023-04-09T03:08:36.427Z,6.28
2023-04-09T03:09:37.966Z,6.31
2023-04-09T03:10:39.484Z,6.31
2023-04-09T03:11:41.678Z,6.35
2023-04-09T03:12:43.284Z,6.37
2023-04-09T03:13:44.822Z,6.35
2023-04-09T03:14:46.370Z,6.36
2023-04-09T03:15:51.941Z,6.37
2023-04-09T03:16:53.614Z,6.39
2023-04-09T03:17:55.221Z,6.40
2023-04-09T03:18:56.772Z,6.44
2023-04-09T03:19:58.308Z,6.45
2023-04-09T03:21:08.385Z,6.44
2023-04-09T03:22:12.932Z,6.39
2023-04-09T03:23:14.929Z,6.43
2023-04-09T03:24:20.711Z,6.39
2023-04-09T03:25:23.509Z,6.40
2023-04-09T03:26:28.137Z,6.39
2023-04-09T03:27:29.810Z,6.40
2023-04-09T03:28:32.493Z,6.42
2023-04-09T03:29:34.132Z,6.43
2023-04-09T03:30:36.028Z,6.45
2023-04-09T03:31:40.239Z,6.40
2023-04-09T03:32:42.724Z,6.41
2023-04-09T03:33:47.600Z,6.40
2023-04-09T03:34:49.199Z,6.41
2023-04-09T03:35:57.153Z,6.38
2023-04-09T03:37:36.829Z,6.38
2023-04-09T03:38:39.083Z,6.40
2023-04-09T03:39:46.604Z,6.39
2023-04-09T03:40:48.134Z,6.39
2023-04-09T03:41:49.830Z,6.40
2023-04-09T03:42:53.010Z,6.37
2023-04-09T03:43:54.832Z,6.37
2023-04-09T03:45:00.512Z,6.38
2023-04-09T03:46:16.534Z,6.41
2023-04-09T03:47:20.446Z,6.40
2023-04-09T03:48:22.273Z,6.40
2023-04-09T03:49:24.307Z,6.42
2023-04-09T03:50:26.432Z,6.41
2023-04-09T03:51:30.517Z,6.43
2023-04-09T03:52:33.776Z,6.41
2023-04-09T03:53:40.942Z,6.37
2023-04-09T03:54:42.618Z,6.37
2023-04-09T03:55:49.389Z,6.38
2023-04-09T03:56:57.043Z,6.36
2023-04-09T03:57:59.465Z,6.38
2023-04-09T03:59:05.643Z,6.40
2023-04-09T04:00:14.011Z,6.39
2023-04-09T04:01:33.990Z,6.40
2023-04-09T04:02:36.541Z,6.39
2023-04-09T04:03:41.649Z,6.43
2023-04-09T04:04:51.376Z,6.42
2023-04-09T04:05:53.372Z,6.41
2023-04-09T04:06:54.928Z,6.41
2023-04-09T04:08:09.993Z,6.41
2023-04-09T04:09:11.576Z,6.43
2023-04-09T04:10:27.522Z,6.41
2023-04-09T04:11:29.771Z,6.43
2023-04-09T04:12:31.910Z,6.45
2023-04-09T04:13:46.715Z,6.41
2023-04-09T04:14:48.271Z,6.44
2023-04-09T04:16:09.562Z,6.45
2023-04-09T04:17:13.150Z,6.47
2023-04-09T04:18:14.773Z,6.47
2023-04-09T04:19:22.570Z,6.46
2023-04-09T04:20:26.360Z,6.45
2023-04-09T04:21:36.297Z,6.44
2023-04-09T04:22:37.848Z,6.41
2023-04-09T04:23:39.648Z,6.43
2023-04-09T04:24:58.461Z,6.44
2023-04-09T04:26:00.373Z,6.44
2023-04-09T04:27:10.949Z,6.46
2023-04-09T04:28:12.469Z,6.44
2023-04-09T04:29:16.492Z,6.41
2023-04-09T04:30:28.749Z,6.40
2023-04-09T04:31:35.498Z,6.35
2023-04-09T04:32:37.389Z,6.36
2023-04-09T04:33:43.272Z,6.29
2023-04-09T04:34:49.492Z,6.17
2023-04-09T04:36:12.098Z,6.06
2023-04-09T04:37:25.944Z,5.93
2023-04-09T04:38:31.309Z,5.92
2023-04-09T04:39:35.573Z,5.89
2023-04-09T04:40:45.033Z,5.89
2023-04-09T04:41:46.565Z,5.89
2023-04-09T04:42:53.458Z,5.88
2023-04-09T04:43:55.075Z,5.89
2023-04-09T04:44:58.857Z,5.87
2023-04-09T04:46:14.956Z,5.83
2023-04-09T04:47:16.674Z,5.82
2023-04-09T04:48:18.295Z,5.79
2023-04-09T04:49:19.821Z,5.74
2023-04-09T04:50:22.713Z,5.73
2023-04-09T04:51:44.499Z,5.70
2023-04-09T04:52:48.614Z,5.67
2023-04-09T04:53:50.220Z,5.61
2023-04-09T04:54:51.797Z,5.58
2023-04-09T04:55:56.946Z,5.54
2023-04-09T04:57:01.136Z,5.55
2023-04-09T04:58:09.025Z,5.56
2023-04-09T04:59:18.337Z,5.54
2023-04-09T05:00:31.358Z,5.55
2023-04-09T05:01:36.409Z,5.54
2023-04-09T05:02:42.239Z,5.56
2023-04-09T05:04:13.231Z,5.63
2023-04-09T05:05:14.981Z,5.69
2023-04-09T05:06:22.540Z,5.75
2023-04-09T05:07:24.144Z,5.77
2023-04-09T05:08:29.005Z,5.80
2023-04-09T05:09:31.833Z,5.87
2023-04-09T05:10:36.492Z,5.90
2023-04-09T05:11:38.189Z,5.87
2023-04-09T05:12:43.852Z,5.90
2023-04-09T05:13:47.688Z,5.95
2023-04-09T05:14:49.607Z,5.98
2023-04-09T05:15:51.197Z,6.00
2023-04-09T05:16:53.354Z,6.02
2023-04-09T05:17:58.985Z,6.07
2023-04-09T05:19:00.854Z,6.11
2023-04-09T05:20:02.422Z,6.17
2023-04-09T05:21:20.523Z,6.22
2023-04-09T05:22:23.448Z,6.24
2023-04-09T05:23:25.017Z,6.26
2023-04-09T05:24:26.585Z,6.29
2023-04-09T05:25:28.182Z,6.30
2023-04-09T05:26:30.231Z,6.30
2023-04-09T05:27:33.134Z,6.33
2023-04-09T05:28:36.327Z,6.32
2023-04-09T05:29:44.100Z,6.28
2023-04-09T05:30:48.775Z,6.25
2023-04-09T05:31:52.506Z,6.29
2023-04-09T05:33:05.147Z,6.35
2023-04-09T05:34:07.489Z,6.39
2023-04-09T05:35:13.857Z,6.41
2023-04-09T05:36:19.281Z,6.45
2023-04-09T05:37:20.806Z,6.41
2023-04-09T05:38:26.176Z,6.42
2023-04-09T05:39:32.919Z,6.43
2023-04-09T05:40:35.622Z,6.46
2023-04-09T05:41:41.136Z,6.41
2023-04-09T05:42:57.179Z,6.40
2023-04-09T05:44:09.319Z,6.43
2023-04-09T05:45:13.267Z,6.45
2023-04-09T05:46:22.187Z,6.45
2023-04-09T05:47:24.553Z,6.40
2023-04-09T05:48:44.584Z,6.38
2023-04-09T05:49:46.148Z,6.37
2023-04-09T05:50:54.984Z,6.40
2023-04-09T05:51:59.861Z,6.40
2023-04-09T05:53:03.746Z,6.29
2023-04-09T05:54:12.576Z,6.25
2023-04-09T05:55:14.154Z,6.22
2023-04-09T05:56:20.652Z,6.17
2023-04-09T05:57:26.557Z,6.11
2023-04-09T05:58:32.983Z,6.14
2023-04-09T05:59:34.725Z,6.19
2023-04-09T06:00:36.254Z,6.21
2023-04-09T06:01:37.850Z,6.23
2023-04-09T06:02:39.459Z,6.25
2023-04-09T06:03:41.165Z,6.29
2023-04-09T06:04:42.774Z,6.32
2023-04-09T06:05:45.622Z,6.32
2023-04-09T06:06:47.157Z,6.34
2023-04-09T06:07:49.244Z,6.34
2023-04-09T06:08:50.826Z,6.36
2023-04-09T06:09:52.347Z,6.37
2023-04-09T06:10:53.894Z,6.38
2023-04-09T06:11:55.456Z,6.38
2023-04-09T06:12:56.993Z,6.43
2023-04-09T06:13:58.515Z,6.46
2023-04-09T06:15:00.152Z,6.50
2023-04-09T06:16:05.069Z,6.50
2023-04-09T06:17:06.710Z,6.53
2023-04-09T06:18:08.410Z,6.53
2023-04-09T06:19:10.100Z,6.54
2023-04-09T06:20:11.802Z,6.58
2023-04-09T06:21:13.319Z,6.59
2023-04-09T06:22:14.875Z,6.61
2023-04-09T06:23:16.427Z,6.61
2023-04-09T06:24:17.989Z,6.68
2023-04-09T06:25:19.560Z,6.74
2023-04-09T06:26:21.078Z,6.82
2023-04-09T06:27:22.709Z,6.91
2023-04-09T06:28:24.354Z,6.89
2023-04-09T06:29:25.895Z,6.95
2023-04-09T06:30:27.534Z,7.00
2023-04-09T06:31:29.103Z,7.06
2023-04-09T06:32:33.537Z,7.11
2023-04-09T06:33:37.117Z,7.16
2023-04-09T06:34:38.617Z,7.18
2023-04-09T06:35:40.187Z,7.19
2023-04-09T06:36:41.785Z,7.23
2023-04-09T06:37:43.347Z,7.24
2023-04-09T06:38:44.869Z,7.31
2023-04-09T06:39:59.995Z,7.29
2023-04-09T06:41:02.769Z,7.25
2023-04-09T06:42:04.343Z,7.26
2023-04-09T06:43:12.911Z,7.27
2023-04-09T06:44:36.051Z,7.35
2023-04-09T06:45:39.564Z,7.40
2023-04-09T06:46:42.410Z,7.41
2023-04-09T06:47:43.976Z,7.48
2023-04-09T06:48:46.425Z,7.53
2023-04-09T06:49:47.958Z,7.54
2023-04-09T06:50:49.512Z,7.51
2023-04-09T06:51:51.029Z,7.52
2023-04-09T06:52:52.786Z,7.53
2023-04-09T06:53:54.525Z,7.53
2023-04-09T06:54:56.606Z,7.53
2023-04-09T06:55:58.142Z,7.53
2023-04-09T06:56:59.659Z,7.55
2023-04-09T06:58:01.180Z,7.52
2023-04-09T06:59:02.739Z,7.45
2023-04-09T07:00:04.704Z,7.50
2023-04-09T07:01:06.287Z,7.53
2023-04-09T07:02:08.079Z,7.51
2023-04-09T07:03:09.868Z,7.52
2023-04-09T07:04:11.709Z,7.54
2023-04-09T07:05:13.331Z,7.57
2023-04-09T07:06:14.826Z,7.57
2023-04-09T07:07:16.379Z,7.61
2023-04-09T07:08:17.870Z,7.62
2023-04-09T07:09:19.412Z,7.66
2023-04-09T07:10:20.950Z,7.69
2023-04-09T07:11:22.580Z,7.68
2023-04-09T07:12:42.249Z,7.74
2023-04-09T07:13:43.821Z,7.80
2023-04-09T07:14:45.348Z,7.80
2023-04-09T07:15:46.916Z,7.72
2023-04-09T07:16:48.447Z,7.65
2023-04-09T07:17:50.351Z,7.64
2023-04-09T07:18:51.920Z,7.63
2023-04-09T07:19:53.604Z,7.67
2023-04-09T07:20:55.124Z,7.69
2023-04-09T07:21:56.678Z,7.70
2023-04-09T07:22:58.198Z,7.73
2023-04-09T07:23:59.758Z,7.75
2023-04-09T07:25:01.345Z,7.72
2023-04-09T07:26:06.481Z,7.63
2023-04-09T07:27:07.991Z,7.56
2023-04-09T07:28:09.520Z,7.59
2023-04-09T07:29:11.076Z,7.57
2023-04-09T07:30:12.780Z,7.58
2023-04-09T07:31:14.370Z,7.60
2023-04-09T07:32:16.074Z,7.68
2023-04-09T07:33:17.583Z,7.64
2023-04-09T07:34:19.121Z,7.58
2023-04-09T07:35:20.871Z,7.58
2023-04-09T07:36:22.731Z,7.65
2023-04-09T07:37:24.447Z,7.61
2023-04-09T07:38:28.921Z,7.63
2023-04-09T07:39:30.418Z,7.71
2023-04-09T07:40:34.395Z,7.76
2023-04-09T07:41:36.028Z,7.77
2023-04-09T07:42:38.684Z,7.82
2023-04-09T07:43:40.706Z,7.83
2023-04-09T07:44:42.231Z,7.88
2023-04-09T07:45:43.759Z,7.91
2023-04-09T07:46:45.322Z,7.94
2023-04-09T07:47:46.844Z,7.96
2023-04-09T07:48:48.548Z,7.95
2023-04-09T07:49:50.199Z,7.96
2023-04-09T07:50:51.738Z,8.00
2023-04-09T07:51:53.611Z,8.02
2023-04-09T07:52:55.144Z,7.95
2023-04-09T07:53:56.810Z,7.87
2023-04-09T07:54:58.341Z,7.69
2023-04-09T07:55:59.870Z,7.75
2023-04-09T07:57:01.618Z,7.81
2023-04-09T07:58:03.241Z,7.87
2023-04-09T07:59:04.760Z,7.89
2023-04-09T08:00:06.920Z,7.96
2023-04-09T08:01:14.924Z,7.95
2023-04-09T08:02:17.829Z,7.96
2023-04-09T08:03:19.847Z,7.98
2023-04-09T08:04:21.952Z,8.00
2023-04-09T08:05:23.740Z,8.01
2023-04-09T08:06:25.315Z,8.01
2023-04-09T08:07:26.884Z,8.04
2023-04-09T08:08:28.401Z,8.07
2023-04-09T08:09:29.953Z,8.10
2023-04-09T08:10:31.478Z,8.10
2023-04-09T08:11:33.227Z,8.16
2023-04-09T08:12:34.829Z,8.16
2023-04-09T08:13:36.373Z,8.17
2023-04-09T08:14:37.911Z,8.20
2023-04-09T08:15:39.421Z,8.20
2023-04-09T08:16:43.321Z,8.12
2023-04-09T08:17:45.003Z,8.17
2023-04-09T08:18:47.323Z,8.19
2023-04-09T08:19:48.899Z,8.26
2023-04-09T08:20:50.434Z,8.32
2023-04-09T08:21:51.945Z,8.32
2023-04-09T08:22:53.462Z,8.31
2023-04-09T08:23:55.068Z,8.32
2023-04-09T08:24:56.806Z,8.32
2023-04-09T08:25:58.304Z,8.36
2023-04-09T08:26:59.970Z,8.37
2023-04-09T08:28:01.497Z,8.41
2023-04-09T08:29:03.160Z,8.42
2023-04-09T08:30:05.136Z,8.41
2023-04-09T08:31:06.662Z,8.37
2023-04-09T08:32:08.266Z,8.35
2023-04-09T08:33:09.907Z,8.37
2023-04-09T08:34:11.483Z,8.35
2023-04-09T08:35:13.118Z,8.35
2023-04-09T08:36:14.896Z,8.39
2023-04-09T08:37:16.462Z,8.44
2023-04-09T08:38:19.334Z,8.50
2023-04-09T08:39:20.972Z,8.53
2023-04-09T08:40:23.194Z,8.56
2023-04-09T08:41:26.715Z,8.59
2023-04-09T08:42:29.586Z,8.58
2023-04-09T08:43:52.691Z,8.58
2023-04-09T08:44:54.295Z,8.53
2023-04-09T08:45:55.953Z,8.50
2023-04-09T08:46:58.524Z,8.50
2023-04-09T08:48:03.152Z,8.54
2023-04-09T08:49:05.081Z,8.56
2023-04-09T08:50:06.993Z,8.48
2023-04-09T08:51:08.880Z,8.51
2023-04-09T08:52:10.416Z,8.52
2023-04-09T08:53:13.372Z,8.54
2023-04-09T08:54:16.554Z,8.54
2023-04-09T08:55:18.121Z,8.55
2023-04-09T08:56:19.909Z,8.57
2023-04-09T08:57:21.447Z,8.58
2023-04-09T08:58:22.957Z,8.60
2023-04-09T08:59:24.502Z,8.65
2023-04-09T09:00:26.069Z,8.69
2023-04-09T09:01:29.766Z,8.69
2023-04-09T09:02:31.447Z,8.70
2023-04-09T09:03:53.625Z,8.73
2023-04-09T09:04:55.408Z,8.75
2023-04-09T09:05:56.937Z,8.55
2023-04-09T09:07:06.250Z,8.57
2023-04-09T09:08:12.484Z,8.59
2023-04-09T09:09:16.010Z,8.68
2023-04-09T09:10:17.550Z,8.71
2023-04-09T09:11:25.936Z,8.76
2023-04-09T09:12:41.293Z,8.74
2023-04-09T09:13:42.855Z,8.75
2023-04-09T09:14:44.386Z,8.82
2023-04-09T09:15:45.920Z,8.91
2023-04-09T09:16:56.570Z,8.99
2023-04-09T09:18:00.205Z,9.02
2023-04-09T09:19:02.658Z,9.05
2023-04-09T09:20:20.179Z,9.11
2023-04-09T09:21:22.078Z,9.17
2023-04-09T09:22:24.645Z,9.17
2023-04-09T09:23:35.575Z,9.13
2023-04-09T09:24:48.378Z,9.14
2023-04-09T09:25:51.218Z,9.14
2023-04-09T09:26:53.040Z,9.19
2023-04-09T09:27:54.827Z,9.23
2023-04-09T09:28:57.582Z,9.23
2023-04-09T09:29:59.403Z,9.26
2023-04-09T09:31:08.689Z,9.22
2023-04-09T09:32:13.384Z,9.23
2023-04-09T09:33:15.051Z,9.25
2023-04-09T09:34:18.641Z,9.27
2023-04-09T09:35:20.365Z,9.28
2023-04-09T09:36:32.851Z,9.25
2023-04-09T09:37:34.418Z,9.28
2023-04-09T09:38:56.551Z,9.30
2023-04-09T09:39:58.256Z,9.36
2023-04-09T09:41:16.966Z,9.42
2023-04-09T09:42:18.535Z,9.48
2023-04-09T09:43:20.056Z,9.52
2023-04-09T09:44:32.627Z,9.50
2023-04-09T09:45:36.060Z,9.52
2023-04-09T09:46:42.025Z,9.46
2023-04-09T09:47:44.964Z,9.37
2023-04-09T09:48:46.603Z,9.31
2023-04-09T09:49:49.301Z,9.29
2023-04-09T09:50:51.761Z,9.26
2023-04-09T09:51:56.709Z,9.28
2023-04-09T09:53:03.523Z,9.32
2023-04-09T09:54:07.621Z,9.29
2023-04-09T09:55:10.256Z,9.34
2023-04-09T09:56:18.298Z,9.24
2023-04-09T09:57:20.569Z,9.25
2023-04-09T09:58:31.897Z,9.30
2023-04-09T09:59:41.021Z,9.30
2023-04-09T10:00:44.864Z,9.27
2023-04-09T10:01:48.245Z,9.26
2023-04-09T10:03:14.091Z,9.20
2023-04-09T10:04:16.867Z,9.18
2023-04-09T10:05:18.764Z,9.21
2023-04-09T10:06:20.670Z,9.27
2023-04-09T10:07:22.598Z,9.30
2023-04-09T10:08:24.357Z,9.30
2023-04-09T10:09:27.614Z,9.38
2023-04-09T10:10:30.697Z,9.42
2023-04-09T10:11:35.336Z,9.45
2023-04-09T10:12:37.247Z,9.48
2023-04-09T10:13:50.149Z,9.50
2023-04-09T10:14:52.488Z,9.51
2023-04-09T10:15:54.512Z,9.54
2023-04-09T10:16:56.314Z,9.58
2023-04-09T10:17:58.109Z,9.63
2023-04-09T10:19:00.981Z,9.65
2023-04-09T10:20:14.188Z,9.62
2023-04-09T10:21:29.672Z,9.59
2023-04-09T10:22:33.263Z,9.55
2023-04-09T10:23:42.831Z,9.53
2023-04-09T10:24:45.171Z,9.55
2023-04-09T10:25:46.793Z,9.54
2023-04-09T10:26:48.448Z,9.48
2023-04-09T10:28:17.493Z,9.61
2023-04-09T10:29:27.945Z,9.71
2023-04-09T10:30:36.353Z,9.80
2023-04-09T10:32:05.949Z,9.82
2023-04-09T10:33:15.345Z,9.83
2023-04-09T10:34:26.589Z,9.89
2023-04-09T10:35:28.185Z,10.01
2023-04-09T10:36:30.806Z,10.06
2023-04-09T10:37:32.376Z,10.09
2023-04-09T10:38:38.343Z,10.07
2023-04-09T10:39:44.091Z,10.05
2023-04-09T10:40:50.694Z,10.10
2023-04-09T10:41:54.272Z,10.09
2023-04-09T10:42:58.114Z,10.06
2023-04-09T10:43:59.713Z,10.08
2023-04-09T10:45:06.796Z,10.11
2023-04-09T10:46:26.338Z,10.13
2023-04-09T10:47:36.566Z,10.19
2023-04-09T10:48:38.108Z,10.16
2023-04-09T10:49:41.363Z,10.12
2023-04-09T10:50:45.526Z,10.03
2023-04-09T10:52:06.532Z,9.97
2023-04-09T10:53:22.283Z,9.91
2023-04-09T10:54:32.889Z,9.89
2023-04-09T10:55:34.401Z,9.98
2023-04-09T10:56:35.932Z,10.04
2023-04-09T10:57:37.498Z,10.08
2023-04-09T10:58:39.019Z,10.13
2023-04-09T10:59:59.951Z,10.19
2023-04-09T11:01:01.734Z,10.23
2023-04-09T11:02:08.508Z,10.26
2023-04-09T11:03:26.653Z,10.18
2023-04-09T11:04:47.444Z,10.19
2023-04-09T11:05:55.536Z,10.16
2023-04-09T11:06:57.266Z,10.21
2023-04-09T11:08:13.243Z,10.19
2023-04-09T11:09:14.780Z,10.17
2023-04-09T11:10:16.382Z,10.19
2023-04-09T11:11:17.929Z,10.18
2023-04-09T11:12:19.437Z,10.21
2023-04-09T11:13:21.047Z,10.24
2023-04-09T11:14:22.591Z,10.26
2023-04-09T11:15:24.205Z,10.25
2023-04-09T11:16:27.879Z,10.19
2023-04-09T11:17:35.916Z,10.19
2023-04-09T11:18:37.613Z,10.18
2023-04-09T11:19:39.255Z,10.23
2023-04-09T11:20:40.845Z,10.25
2023-04-09T11:22:44.240Z,10.35
2023-04-09T11:23:52.130Z,10.27
2023-04-09T11:24:53.793Z,10.32
2023-04-09T11:25:55.508Z,10.27
2023-04-09T11:26:57.012Z,10.14
2023-04-09T11:27:58.791Z,10.13
2023-04-09T11:29:05.391Z,10.20
2023-04-09T11:30:07.707Z,10.19
2023-04-09T11:31:09.345Z,10.23
2023-04-09T11:32:12.698Z,10.25
2023-04-09T11:33:15.591Z,10.32
2023-04-09T11:34:17.922Z,10.35
2023-04-09T11:35:21.378Z,10.48
2023-04-09T11:36:22.995Z,10.55
2023-04-09T11:37:24.609Z,10.56
2023-04-09T11:38:26.197Z,10.59
2023-04-09T11:39:28.329Z,10.61
2023-04-09T11:40:29.888Z,10.69
2023-04-09T11:41:35.704Z,10.74
2023-04-09T11:42:37.230Z,10.82
2023-04-09T11:43:38.781Z,10.77
2023-04-09T11:44:40.518Z,10.73
2023-04-09T11:45:42.598Z,10.65
2023-04-09T11:46:44.891Z,10.65
2023-04-09T11:47:47.047Z,10.66
2023-04-09T11:48:48.883Z,10.74
2023-04-09T11:49:50.947Z,10.76
2023-04-09T11:50:52.801Z,10.75
2023-04-09T11:51:54.514Z,10.70
2023-04-09T11:52:56.088Z,10.66
2023-04-09T11:54:01.841Z,10.70
2023-04-09T11:55:04.836Z,10.68
2023-04-09T11:56:06.983Z,10.67
2023-04-09T11:57:08.595Z,10.60
2023-04-09T11:58:10.880Z,10.64
2023-04-09T11:59:15.060Z,10.68
2023-04-09T12:00:17.585Z,10.73
2023-04-09T12:01:22.083Z,10.76
2023-04-09T12:02:23.853Z,10.65
2023-04-09T12:03:32.264Z,10.60
2023-04-09T12:04:34.648Z,10.62
2023-04-09T12:05:37.121Z,10.70
2023-04-09T12:06:42.300Z,10.78
2023-04-09T12:07:55.520Z,10.78
2023-04-09T12:08:59.331Z,10.78
2023-04-09T12:10:07.769Z,10.72
2023-04-09T12:11:13.246Z,10.61
2023-04-09T12:12:19.015Z,10.57
2023-04-09T12:13:20.808Z,10.56
2023-04-09T12:14:22.388Z,10.52
2023-04-09T12:15:24.960Z,10.60
2023-04-09T12:16:26.581Z,10.70
2023-04-09T12:17:28.230Z,10.85
2023-04-09T12:18:29.868Z,11.00
2023-04-09T12:19:31.401Z,11.06
2023-04-09T12:20:40.812Z,11.11
2023-04-09T12:21:53.125Z,11.04
2023-04-09T12:22:55.174Z,11.05
2023-04-09T12:23:56.684Z,11.00
2023-04-09T12:24:58.214Z,10.78
2023-04-09T12:25:59.745Z,10.79
2023-04-09T12:27:01.267Z,10.79
2023-04-09T12:28:04.168Z,10.86
2023-04-09T12:29:05.721Z,10.83
2023-04-09T12:30:07.862Z,10.73
2023-04-09T12:31:10.338Z,10.68
2023-04-09T12:32:12.018Z,10.74
2023-04-09T12:33:13.641Z,10.76
2023-04-09T12:34:15.209Z,10.84
2023-04-09T12:35:16.720Z,10.86
2023-04-09T12:36:18.222Z,10.83
2023-04-09T12:37:19.781Z,10.83
2023-04-09T12:38:21.450Z,10.87
2023-04-09T12:39:23.006Z,10.81
2023-04-09T12:40:24.770Z,10.79
2023-04-09T12:41:26.534Z,10.80
2023-04-09T12:42:28.114Z,10.81
2023-04-09T12:43:29.648Z,10.81
2023-04-09T12:44:31.209Z,10.87
2023-04-09T12:45:32.954Z,10.88
2023-04-09T12:46:34.495Z,10.82
2023-04-09T12:47:36.170Z,10.78
2023-04-09T12:48:37.718Z,10.75
2023-04-09T12:49:41.769Z,10.79
2023-04-09T12:50:43.896Z,10.87
2023-04-09T12:51:45.461Z,10.86
2023-04-09T12:52:47.131Z,10.86
2023-04-09T12:53:48.637Z,10.89
2023-04-09T12:54:51.640Z,10.89
2023-04-09T12:55:53.208Z,10.88
2023-04-09T12:56:54.712Z,10.88
2023-04-09T12:57:56.260Z,10.90
2023-04-09T12:58:57.809Z,10.96
2023-04-09T12:59:59.706Z,11.00
2023-04-09T13:01:01.360Z,10.99
2023-04-09T13:02:03.173Z,10.93
2023-04-09T13:03:04.987Z,10.85
2023-04-09T13:04:06.802Z,10.71
2023-04-09T13:05:08.624Z,10.68
2023-04-09T13:06:10.312Z,10.74
2023-04-09T13:07:12.369Z,10.75
2023-04-09T13:08:13.950Z,10.70
2023-04-09T13:09:15.765Z,10.69
2023-04-09T13:10:17.349Z,10.60
2023-04-09T13:11:18.923Z,10.51
2023-04-09T13:12:20.503Z,10.48
2023-04-09T13:13:21.994Z,10.48
2023-04-09T13:14:23.548Z,10.51
2023-04-09T13:15:25.155Z,10.48
2023-04-09T13:16:26.807Z,10.43
2023-04-09T13:17:28.448Z,10.37
2023-04-09T13:18:29.989Z,10.31
2023-04-09T13:19:31.506Z,10.36
2023-04-09T13:20:33.052Z,10.41
2023-04-09T13:21:34.775Z,10.44
2023-04-09T13:22:36.307Z,10.45
2023-04-09T13:23:37.825Z,10.56
2023-04-09T13:24:39.357Z,10.68
2023-04-09T13:25:40.864Z,10.70
2023-04-09T13:26:42.438Z,10.73
2023-04-09T13:27:44.196Z,10.75
2023-04-09T13:28:45.709Z,10.70
2023-04-09T13:29:47.220Z,10.72
2023-04-09T13:30:48.800Z,10.68
2023-04-09T13:31:50.378Z,10.59
2023-04-09T13:32:52.005Z,10.64
2023-04-09T13:33:53.633Z,10.71
2023-04-09T13:34:55.177Z,10.70
2023-04-09T13:35:56.876Z,10.70
2023-04-09T13:36:58.442Z,10.76
2023-04-09T13:37:59.965Z,10.82
2023-04-09T13:39:01.566Z,10.80
2023-04-09T13:40:03.149Z,10.78
2023-04-09T13:41:05.196Z,10.70
2023-04-09T13:42:13.725Z,10.71
2023-04-09T13:43:15.832Z,10.70
2023-04-09T13:44:17.351Z,10.60
2023-04-09T13:45:19.012Z,10.51
2023-04-09T13:46:20.645Z,10.49
2023-04-09T13:47:22.313Z,10.48
2023-04-09T13:48:24.440Z,10.52
2023-04-09T13:49:25.961Z,10.60
2023-04-09T13:50:27.534Z,10.63
2023-04-09T13:51:29.125Z,10.61
2023-04-09T13:52:31.910Z,10.64
2023-04-09T13:53:33.440Z,10.53
2023-04-09T13:54:35.179Z,10.56
2023-04-09T13:55:36.693Z,10.58
2023-04-09T13:56:39.462Z,10.48
2023-04-09T13:57:40.989Z,10.54
2023-04-09T13:58:42.558Z,10.59
2023-04-09T13:59:44.104Z,10.56
2023-04-09T14:00:45.631Z,10.60
2023-04-09T14:01:47.298Z,10.43
2023-04-09T14:02:48.964Z,10.40
2023-04-09T14:03:50.720Z,10.44
2023-04-09T14:04:52.344Z,10.43
2023-04-09T14:05:53.843Z,10.39